Tripolis, Greece
Current Conditions -  °F | °C
As of 9:20 AM on Saturday 29 Nov 2014 (Local Time) from LGKL Reporting Station
Scattered Clouds Scattered Clouds  
Wind Chill: 54°   Ceiling: Unl
Heat Index: 54°   Visibility: 6mi
Dew Point: 52°   Wind: 0mph
Humidity: 94%   Direction: NA
Pressure: 30.24"   Gusts: NA
Location:  37.51°N, 22.37°E
Report Text: LGKL 290620Z 00000KT 9999 FEW030 SCT080 12/11 Q1024
Loading
Personal Weather Stations






























Interactive Weather Map New forecast layout! Learn more

10-Day Weather Forecast

Advertisements
Track Severe Weather on mobile